createdAt,value
2022-08-08T00:00:55.094Z,100882.81
2022-08-08T00:02:04.024Z,100889.25
2022-08-08T00:03:20.281Z,100892.09
2022-08-08T00:04:57.842Z,100890.78
2022-08-08T00:06:03.496Z,100890.34
2022-08-08T00:06:56.786Z,100886.78
2022-08-08T00:07:53.894Z,100884.28
2022-08-08T00:08:57.767Z,100884.09
2022-08-08T00:10:06.846Z,100881.72
2022-08-08T00:11:15.773Z,100889.03
2022-08-08T00:12:07.599Z,100888.44
2022-08-08T00:14:15.128Z,100895.59
2022-08-08T00:15:24.188Z,100894.41
2022-08-08T00:17:47.898Z,100887.84
2022-08-08T00:19:40.790Z,100879.41
2022-08-08T00:20:52.765Z,100892.84
2022-08-08T00:21:54.756Z,100894.88
2022-08-08T00:23:00.749Z,100883.25
2022-08-08T00:24:03.776Z,100886.00
2022-08-08T00:25:05.811Z,100888.16
2022-08-08T00:26:07.758Z,100862.09
2022-08-08T00:27:10.756Z,100884.75
2022-08-08T00:28:33.974Z,100890.03
2022-08-08T00:29:46.451Z,100887.31
2022-08-08T00:30:27.773Z,100889.03
2022-08-08T00:32:21.474Z,100892.34
2022-08-08T00:32:35.370Z,100868.97
2022-08-08T00:33:24.816Z,100876.59
2022-08-08T00:34:58.729Z,100877.16
2022-08-08T00:36:15.050Z,100892.75
2022-08-08T00:37:47.124Z,100890.75
2022-08-08T00:38:59.855Z,100891.72
2022-08-08T00:41:09.294Z,100901.34
2022-08-08T00:42:33.390Z,100899.78
2022-08-08T00:43:59.246Z,100899.50
2022-08-08T00:45:21.789Z,100893.47
2022-08-08T00:46:56.982Z,100897.47
2022-08-08T00:48:29.340Z,100894.91
2022-08-08T00:50:17.826Z,100901.66
2022-08-08T00:51:38.999Z,100904.09
2022-08-08T00:52:39.109Z,100903.09
2022-08-08T00:53:57.178Z,100893.91
2022-08-08T00:54:58.799Z,100894.50
2022-08-08T00:56:03.708Z,100897.38
2022-08-08T00:56:52.946Z,100886.78
2022-08-08T00:58:32.730Z,100899.09
2022-08-08T00:59:43.719Z,100894.94
2022-08-08T01:00:42.713Z,100880.91
2022-08-08T01:04:01.353Z,100890.22
2022-08-08T01:04:02.645Z,100890.94
2022-08-08T01:05:41.794Z,100892.34
2022-08-08T01:07:54.085Z,100898.22
2022-08-08T01:09:36.138Z,100897.22
2022-08-08T01:11:21.743Z,100895.78
2022-08-08T01:13:03.726Z,100904.25
2022-08-08T01:14:57.197Z,100904.53
2022-08-08T01:16:30.750Z,100902.25
2022-08-08T01:17:51.405Z,100891.38
2022-08-08T01:19:25.362Z,100897.38
2022-08-08T01:21:26.330Z,100901.94
2022-08-08T01:24:02.477Z,100895.38
2022-08-08T01:24:44.010Z,100894.78
2022-08-08T01:25:40.778Z,100898.50
2022-08-08T01:27:07.116Z,100901.09
2022-08-08T01:28:05.703Z,100902.81
2022-08-08T01:29:23.880Z,100900.66
2022-08-08T01:30:03.792Z,100900.06
2022-08-08T01:32:14.650Z,100901.06
2022-08-08T01:33:33.629Z,100899.91
2022-08-08T01:34:52.715Z,100902.78
2022-08-08T01:35:40.486Z,100901.38
2022-08-08T01:36:52.703Z,100875.59
2022-08-08T01:37:56.995Z,100901.25
2022-08-08T01:39:23.169Z,100896.78
2022-08-08T01:40:34.722Z,100905.06
2022-08-08T01:41:44.670Z,100903.22
2022-08-08T01:42:49.695Z,100903.94
2022-08-08T01:44:09.680Z,100896.78
2022-08-08T01:45:33.697Z,100902.94
2022-08-08T01:46:47.671Z,100899.50
2022-08-08T01:48:13.710Z,100897.50
2022-08-08T01:49:22.966Z,100904.78
2022-08-08T01:51:03.706Z,100892.22
2022-08-08T01:54:33.740Z,100895.78
2022-08-08T01:55:16.308Z,100897.38
2022-08-08T01:56:30.302Z,100901.50
2022-08-08T01:58:04.607Z,100901.66
2022-08-08T01:58:46.472Z,100898.78
2022-08-08T02:00:01.761Z,100896.94
2022-08-08T02:01:21.781Z,100895.06
2022-08-08T02:02:41.356Z,100897.78
2022-08-08T02:03:54.895Z,100893.34
2022-08-08T02:04:57.652Z,100898.06
2022-08-08T02:05:59.075Z,100892.75
2022-08-08T02:07:08.661Z,100897.88
2022-08-08T02:08:34.021Z,100902.50
2022-08-08T02:10:04.035Z,100876.97
2022-08-08T02:11:58.695Z,100894.59
2022-08-08T02:13:04.681Z,100903.91
2022-08-08T02:14:22.677Z,100892.72
2022-08-08T02:15:19.736Z,100903.59
2022-08-08T02:16:34.719Z,100906.38
2022-08-08T02:17:26.843Z,100905.69
2022-08-08T02:18:41.654Z,100909.00
2022-08-08T02:19:57.056Z,100889.06
2022-08-08T02:21:40.658Z,100897.00
2022-08-08T02:23:31.731Z,100901.72
2022-08-08T02:24:44.332Z,100897.75
2022-08-08T02:25:58.966Z,100908.47
2022-08-08T02:27:24.633Z,100889.78
2022-08-08T02:28:34.964Z,100903.03
2022-08-08T02:29:52.792Z,100891.66
2022-08-08T02:30:58.197Z,100911.88
2022-08-08T02:32:40.632Z,100912.56
2022-08-08T02:34:08.028Z,100913.91
2022-08-08T02:36:03.704Z,100911.78
2022-08-08T02:37:52.664Z,100906.91
2022-08-08T02:39:01.096Z,100902.44
2022-08-08T02:40:45.175Z,100913.31
2022-08-08T02:42:38.296Z,100911.88
2022-08-08T02:44:39.009Z,100921.72
2022-08-08T02:46:36.640Z,100921.44
2022-08-08T02:48:40.898Z,100916.53
2022-08-08T02:50:12.502Z,100907.78
2022-08-08T02:51:55.430Z,100922.53
2022-08-08T02:52:53.009Z,100894.31
2022-08-08T02:54:15.637Z,100910.34
2022-08-08T02:55:20.783Z,100916.41
2022-08-08T02:56:14.616Z,100923.06
2022-08-08T02:57:40.643Z,100922.59
2022-08-08T02:58:52.675Z,100916.75
2022-08-08T03:00:32.095Z,100918.09
2022-08-08T03:01:53.768Z,100922.38
2022-08-08T03:03:16.709Z,100918.66
2022-08-08T03:05:17.696Z,100922.53
2022-08-08T03:06:24.105Z,100922.53
2022-08-08T03:07:41.835Z,100916.28
2022-08-08T03:09:07.637Z,100917.25
2022-08-08T03:10:44.490Z,100919.81
2022-08-08T03:12:13.944Z,100927.38
2022-08-08T03:15:54.097Z,100921.22
2022-08-08T03:16:00.661Z,100923.78
2022-08-08T03:16:35.505Z,100930.94
2022-08-08T03:17:59.799Z,100916.34
2022-08-08T03:19:07.667Z,100926.06
2022-08-08T03:20:19.650Z,100924.59
2022-08-08T03:21:09.494Z,100923.44
2022-08-08T03:21:58.704Z,100928.28
2022-08-08T03:22:40.954Z,100931.41
2022-08-08T03:23:23.835Z,100923.09
2022-08-08T03:24:11.672Z,100929.25
2022-08-08T03:24:58.598Z,100910.47
2022-08-08T03:25:40.605Z,100923.66
2022-08-08T03:26:14.677Z,100913.75
2022-08-08T03:27:13.600Z,100933.59
2022-08-08T03:28:06.601Z,100932.22
2022-08-08T03:29:17.072Z,100931.69
2022-08-08T03:30:10.626Z,100915.41
2022-08-08T03:31:22.558Z,100920.56
2022-08-08T03:32:14.417Z,100929.41
2022-08-08T03:33:07.880Z,100934.84
2022-08-08T03:34:06.594Z,100932.50
2022-08-08T03:34:47.661Z,100929.19
2022-08-08T03:35:24.269Z,100927.88
2022-08-08T03:36:10.358Z,100938.72
2022-08-08T03:36:49.674Z,100922.91
2022-08-08T03:38:53.719Z,100927.38
2022-08-08T03:38:57.250Z,100923.22
2022-08-08T03:39:22.672Z,100927.75
2022-08-08T03:40:28.858Z,100929.47
2022-08-08T03:41:08.875Z,100921.47
2022-08-08T03:42:27.630Z,100940.09
2022-08-08T03:43:16.607Z,100934.09
2022-08-08T03:44:10.561Z,100936.66
2022-08-08T03:44:47.899Z,100936.75
2022-08-08T03:46:05.675Z,100932.59
2022-08-08T03:46:49.861Z,100935.84
2022-08-08T03:47:45.233Z,100922.81
2022-08-08T03:48:21.322Z,100931.81
2022-08-08T03:50:00.464Z,100929.97
2022-08-08T03:50:26.146Z,100940.16
2022-08-08T03:50:59.634Z,100929.41
2022-08-08T03:51:50.411Z,100936.91
2022-08-08T03:52:34.084Z,100927.16
2022-08-08T03:53:23.930Z,100940.88
2022-08-08T03:54:15.738Z,100935.28
2022-08-08T03:55:20.121Z,100935.69
2022-08-08T03:56:31.683Z,100929.00
2022-08-08T03:58:31.400Z,100933.44
2022-08-08T03:58:35.043Z,100936.59
2022-08-08T03:59:22.727Z,100932.72
2022-08-08T04:00:07.635Z,100938.63
2022-08-08T04:01:01.878Z,100930.31
2022-08-08T04:02:31.621Z,100935.50
2022-08-08T04:03:11.223Z,100923.44
2022-08-08T04:03:58.835Z,100927.16
2022-08-08T04:04:33.674Z,100929.47
2022-08-08T04:05:10.156Z,100940.63
2022-08-08T04:05:50.562Z,100942.34
2022-08-08T04:06:24.665Z,100931.41
2022-08-08T04:07:04.342Z,100932.59
2022-08-08T04:07:47.565Z,100941.81
2022-08-08T04:08:33.226Z,100927.94
2022-08-08T04:09:15.578Z,100928.25
2022-08-08T04:10:05.796Z,100937.31
2022-08-08T04:10:46.546Z,100935.75
2022-08-08T04:11:32.910Z,100925.44
2022-08-08T04:12:28.632Z,100938.66
2022-08-08T04:13:17.971Z,100941.22
2022-08-08T04:14:03.842Z,100939.81
2022-08-08T04:15:01.577Z,100932.38
2022-08-08T04:15:38.844Z,100933.84
2022-08-08T04:16:13.268Z,100927.09
2022-08-08T04:16:58.550Z,100934.97
2022-08-08T04:17:46.756Z,100934.97
2022-08-08T04:18:26.338Z,100936.06
2022-08-08T04:19:06.554Z,100926.34
2022-08-08T04:19:58.707Z,100944.66
2022-08-08T04:20:39.562Z,100934.63
2022-08-08T04:21:23.129Z,100934.50
2022-08-08T04:22:03.546Z,100938.66
2022-08-08T04:22:43.606Z,100939.22
2022-08-08T04:23:24.539Z,100944.66
2022-08-08T04:24:28.140Z,100952.03
2022-08-08T04:25:15.241Z,100949.63
2022-08-08T04:26:06.951Z,100954.59
2022-08-08T04:26:57.585Z,100949.72
2022-08-08T04:28:34.965Z,100940.09
2022-08-08T04:28:41.687Z,100947.53
2022-08-08T04:29:33.366Z,100954.28
2022-08-08T04:30:18.365Z,100945.06
2022-08-08T04:31:07.552Z,100959.56
2022-08-08T04:31:58.257Z,100960.44
2022-08-08T04:32:49.809Z,100944.81
2022-08-08T04:33:44.538Z,100953.69
2022-08-08T04:34:43.022Z,100954.38
2022-08-08T04:35:51.183Z,100958.47
2022-08-08T04:36:33.557Z,100950.06
2022-08-08T04:37:14.603Z,100965.53
2022-08-08T04:37:54.546Z,100966.00
2022-08-08T04:38:34.748Z,100962.50
2022-08-08T04:40:03.668Z,100958.34
2022-08-08T04:40:17.870Z,100957.78
2022-08-08T04:40:57.579Z,100947.72
2022-08-08T04:41:44.552Z,100953.38
2022-08-08T04:42:46.697Z,100944.34
2022-08-08T04:43:57.049Z,100947.69
2022-08-08T04:44:51.545Z,100951.25
2022-08-08T04:45:46.531Z,100958.47
2022-08-08T04:46:40.524Z,100953.25
2022-08-08T04:47:24.499Z,100958.13
2022-08-08T04:48:05.594Z,100956.56
2022-08-08T04:48:45.510Z,100961.44
2022-08-08T04:49:58.526Z,100965.75
2022-08-08T04:50:34.265Z,100955.28
2022-08-08T04:51:28.012Z,100956.44
2022-08-08T04:52:19.544Z,100961.16
2022-08-08T04:53:13.877Z,100962.00
2022-08-08T04:54:40.109Z,100962.28
2022-08-08T04:55:06.645Z,100949.84
2022-08-08T04:55:55.353Z,100969.78
2022-08-08T04:56:44.498Z,100953.72
2022-08-08T04:57:18.594Z,100950.41
2022-08-08T04:58:10.854Z,100960.03
2022-08-08T04:58:46.162Z,100961.34
2022-08-08T04:59:41.969Z,100950.31
2022-08-08T05:00:19.624Z,100955.19
2022-08-08T05:01:11.004Z,100946.59
2022-08-08T05:01:48.357Z,100963.78
2022-08-08T05:02:35.751Z,100953.19
2022-08-08T05:03:18.801Z,100960.66
2022-08-08T05:04:30.529Z,100969.38
2022-08-08T05:05:45.311Z,100967.22
2022-08-08T05:06:39.071Z,100971.09
2022-08-08T05:07:42.101Z,100961.94
2022-08-08T05:08:36.585Z,100967.81
2022-08-08T05:09:30.489Z,100964.53
2022-08-08T05:10:30.536Z,100957.78
2022-08-08T05:11:26.063Z,100965.78
2022-08-08T05:12:21.355Z,100967.22
2022-08-08T05:13:23.491Z,100968.69
2022-08-08T05:14:06.530Z,100953.19
2022-08-08T05:14:47.563Z,100966.69
2022-08-08T05:16:47.502Z,100955.47
2022-08-08T05:16:52.128Z,100966.09
2022-08-08T05:17:54.003Z,100971.28
2022-08-08T05:18:29.586Z,100970.97
2022-08-08T05:19:09.516Z,100956.34
2022-08-08T05:20:15.142Z,100956.91
2022-08-08T05:20:56.487Z,100968.81
2022-08-08T05:21:43.584Z,100974.66
2022-08-08T05:22:36.488Z,100964.34
2022-08-08T05:23:16.765Z,100967.81
2022-08-08T05:24:08.538Z,100971.13
2022-08-08T05:24:49.632Z,100973.53
2022-08-08T05:25:25.684Z,100970.09
2022-08-08T05:26:29.490Z,100973.09
2022-08-08T05:27:03.698Z,100982.81
2022-08-08T05:27:50.483Z,100983.97
2022-08-08T05:28:48.092Z,100983.81
2022-08-08T05:29:35.815Z,100991.25
2022-08-08T05:30:28.242Z,100982.53
2022-08-08T05:32:04.690Z,100981.50
2022-08-08T05:32:36.951Z,100980.91
2022-08-08T05:33:44.078Z,100982.03
2022-08-08T05:34:54.482Z,100975.38
2022-08-08T05:35:47.503Z,100980.56
2022-08-08T05:36:32.557Z,100986.88
2022-08-08T05:37:28.444Z,100977.00
2022-08-08T05:38:30.421Z,100963.66
2022-08-08T05:39:20.510Z,100989.16
2022-08-08T05:39:59.573Z,100976.84
2022-08-08T05:40:58.253Z,100986.03
2022-08-08T05:41:33.547Z,100991.72
2022-08-08T05:42:51.488Z,100984.25
2022-08-08T05:43:40.110Z,100987.09
2022-08-08T05:44:52.487Z,100986.78
2022-08-08T05:45:41.450Z,100988.66
2022-08-08T05:46:24.431Z,100981.91
2022-08-08T05:47:05.559Z,100987.44
2022-08-08T05:48:00.597Z,100981.44
2022-08-08T05:48:41.936Z,100987.53
2022-08-08T05:49:23.495Z,100990.41
2022-08-08T05:50:07.608Z,100979.28
2022-08-08T05:50:49.475Z,100989.03
2022-08-08T05:51:48.102Z,100989.28
2022-08-08T05:52:35.940Z,100973.38
2022-08-08T05:54:25.543Z,100984.44
2022-08-08T05:54:27.364Z,100994.13
2022-08-08T05:55:27.451Z,100994.13
2022-08-08T05:56:21.586Z,100988.16
2022-08-08T05:57:04.738Z,100995.03
2022-08-08T05:58:05.312Z,100975.84
2022-08-08T05:58:57.007Z,100977.97
2022-08-08T05:59:59.793Z,100996.13
2022-08-08T06:00:44.320Z,100998.41
2022-08-08T06:01:55.979Z,100998.97
2022-08-08T06:02:53.592Z,100982.88
2022-08-08T06:03:35.640Z,100994.03
2022-08-08T06:04:23.788Z,100999.78
2022-08-08T06:05:24.269Z,101002.00
2022-08-08T06:06:12.463Z,101002.28
2022-08-08T06:07:04.516Z,101009.28
2022-08-08T06:07:48.444Z,101004.00
2022-08-08T06:08:53.365Z,101002.19
2022-08-08T06:09:59.881Z,101003.16
2022-08-08T06:10:41.463Z,101009.53
2022-08-08T06:11:16.633Z,100993.16
2022-08-08T06:12:07.449Z,100999.88
2022-08-08T06:12:42.509Z,100993.38
2022-08-08T06:13:35.583Z,100993.69
2022-08-08T06:14:23.480Z,100988.22
2022-08-08T06:15:22.461Z,100992.19
2022-08-08T06:16:30.382Z,100999.59
2022-08-08T06:17:50.530Z,101001.63
2022-08-08T06:18:40.490Z,101014.78
2022-08-08T06:19:35.407Z,101010.25
2022-08-08T06:20:32.432Z,100999.50
2022-08-08T06:21:48.419Z,100998.53
2022-08-08T06:22:42.453Z,101006.47
2022-08-08T06:23:52.617Z,101011.13
2022-08-08T06:24:51.457Z,101009.50
2022-08-08T06:26:35.944Z,101008.13
2022-08-08T06:27:23.515Z,101002.19
2022-08-08T06:28:30.455Z,101003.59
2022-08-08T06:29:56.819Z,101018.03
2022-08-08T06:30:31.458Z,101007.47
2022-08-08T06:31:15.495Z,101018.41
2022-08-08T06:32:10.098Z,101015.66
2022-08-08T06:33:01.340Z,101017.44
2022-08-08T06:34:26.355Z,101014.91
2022-08-08T06:36:07.432Z,101011.31
2022-08-08T06:36:13.454Z,101007.78
2022-08-08T06:36:57.848Z,101013.44
2022-08-08T06:37:45.467Z,101014.81
2022-08-08T06:38:35.935Z,101012.44
2022-08-08T06:39:23.456Z,101019.66
2022-08-08T06:40:21.433Z,101007.31
2022-08-08T06:41:22.448Z,101009.88
2022-08-08T06:42:16.449Z,101005.63
2022-08-08T06:43:30.666Z,101008.56
2022-08-08T06:44:31.438Z,101013.91
2022-08-08T06:45:27.436Z,101015.28
2022-08-08T06:46:23.877Z,101014.94
2022-08-08T06:47:05.418Z,101014.28
2022-08-08T06:47:52.410Z,101012.56
2022-08-08T06:48:42.388Z,101017.72
2022-08-08T06:49:56.723Z,101015.00
2022-08-08T06:50:32.323Z,101010.88
2022-08-08T06:51:14.527Z,101001.13
2022-08-08T06:51:57.920Z,101000.28
2022-08-08T06:52:42.993Z,101006.97
2022-08-08T06:53:39.783Z,101007.84
2022-08-08T06:54:20.481Z,101016.06
2022-08-08T06:55:02.460Z,101002.00
2022-08-08T06:55:47.316Z,101013.34
2022-08-08T06:56:47.028Z,101015.75
2022-08-08T06:57:44.483Z,101021.72
2022-08-08T06:58:30.958Z,101005.66
2022-08-08T06:59:20.415Z,101002.41
2022-08-08T07:00:11.536Z,101011.47
2022-08-08T07:01:00.429Z,101002.41
2022-08-08T07:02:26.988Z,101001.88
2022-08-08T07:03:00.544Z,101009.59
2022-08-08T07:04:37.969Z,101009.59
2022-08-08T07:05:24.963Z,101009.94
2022-08-08T07:06:05.559Z,101015.09
2022-08-08T07:07:10.464Z,101015.59
2022-08-08T07:08:24.454Z,101019.53
2022-08-08T07:09:41.709Z,101014.91
2022-08-08T07:10:46.024Z,101016.13
2022-08-08T07:11:46.221Z,101005.34
2022-08-08T07:12:55.393Z,101012.69
2022-08-08T07:14:00.576Z,101008.25
2022-08-08T07:15:23.376Z,100998.31
2022-08-08T07:16:34.481Z,101012.38
2022-08-08T07:17:24.558Z,101007.75
2022-08-08T07:19:14.428Z,101015.44
2022-08-08T07:20:05.628Z,101002.06
2022-08-08T07:20:55.406Z,101011.84
2022-08-08T07:21:32.077Z,101013.53
2022-08-08T07:22:24.809Z,101015.44
2022-08-08T07:23:23.852Z,101001.06
2022-08-08T07:24:35.408Z,101013.38
2022-08-08T07:25:17.076Z,101023.00
2022-08-08T07:26:10.391Z,101013.88
2022-08-08T07:26:50.883Z,101006.50
2022-08-08T07:28:02.008Z,101020.91
2022-08-08T07:28:36.486Z,101016.97
2022-08-08T07:30:02.378Z,101000.69
2022-08-08T07:30:27.435Z,101011.00
2022-08-08T07:31:21.508Z,101011.31
2022-08-08T07:32:22.279Z,101012.34
2022-08-08T07:33:21.385Z,101016.81
2022-08-08T07:34:19.955Z,101015.41
2022-08-08T07:35:01.552Z,101012.84
2022-08-08T07:35:44.430Z,101012.66
2022-08-08T07:36:19.723Z,101011.81
2022-08-08T07:37:13.385Z,101000.00
2022-08-08T07:38:04.830Z,101003.06
2022-08-08T07:38:57.365Z,101011.59
2022-08-08T07:39:45.810Z,101008.56
2022-08-08T07:40:40.105Z,101008.38
2022-08-08T07:41:25.003Z,100985.75
2022-08-08T07:42:20.405Z,101004.59
2022-08-08T07:43:37.291Z,101005.78
2022-08-08T07:44:37.049Z,101003.69
2022-08-08T07:45:51.469Z,101005.72
2022-08-08T07:46:43.437Z,100999.16
2022-08-08T07:47:17.436Z,101003.78
2022-08-08T07:48:10.441Z,101014.09
2022-08-08T07:48:46.445Z,101004.81
2022-08-08T07:49:33.375Z,101008.75
2022-08-08T07:50:08.496Z,101003.56
2022-08-08T07:51:01.528Z,101004.09
2022-08-08T07:51:53.187Z,101013.88
2022-08-08T07:52:34.433Z,101009.56
2022-08-08T07:54:01.870Z,101011.78
2022-08-08T07:54:56.377Z,101004.59
2022-08-08T07:55:38.440Z,101006.63
2022-08-08T07:56:36.108Z,101005.97
2022-08-08T07:57:48.175Z,100981.97
2022-08-08T07:58:56.367Z,101016.88
2022-08-08T08:00:18.380Z,101004.84
2022-08-08T08:01:27.194Z,101009.34
2022-08-08T08:03:05.394Z,101005.88
2022-08-08T08:04:16.369Z,101005.22
2022-08-08T08:05:15.687Z,100992.41
2022-08-08T08:06:10.374Z,101004.84
2022-08-08T08:07:04.381Z,101008.63
2022-08-08T08:08:03.361Z,101001.41
2022-08-08T08:08:58.382Z,100995.63
2022-08-08T08:09:44.454Z,101007.75
2022-08-08T08:10:30.021Z,101002.09
2022-08-08T08:11:38.138Z,101001.22
2022-08-08T08:12:31.564Z,101002.09
2022-08-08T08:14:09.908Z,101016.25
2022-08-08T08:15:15.217Z,101004.53
2022-08-08T08:16:23.434Z,100999.91
2022-08-08T08:17:17.335Z,100997.66
2022-08-08T08:18:14.368Z,101003.59
2022-08-08T08:19:16.421Z,100997.47
2022-08-08T08:20:13.355Z,101003.63
2022-08-08T08:21:13.390Z,101006.38
2022-08-08T08:22:12.478Z,100997.78
2022-08-08T08:23:09.338Z,100999.69
2022-08-08T08:24:03.364Z,101002.53
2022-08-08T08:24:46.493Z,100996.38
2022-08-08T08:25:43.702Z,101003.16
2022-08-08T08:26:28.579Z,101002.47
2022-08-08T08:27:09.561Z,101005.28
2022-08-08T08:27:50.352Z,101003.19
2022-08-08T08:28:32.801Z,101007.63
2022-08-08T08:29:16.625Z,101009.69
2022-08-08T08:29:59.402Z,101011.41
2022-08-08T08:30:35.369Z,100987.09
2022-08-08T08:31:22.345Z,101000.75
2022-08-08T08:31:58.295Z,101007.91
2022-08-08T08:32:51.798Z,100998.13
2022-08-08T08:33:26.474Z,101013.06
2022-08-08T08:34:13.363Z,101003.09
2022-08-08T08:34:50.129Z,101010.31
2022-08-08T08:36:18.498Z,101009.44
2022-08-08T08:36:31.395Z,101000.00
2022-08-08T08:37:12.324Z,100992.63
2022-08-08T08:38:16.218Z,101000.47
2022-08-08T08:38:57.336Z,101009.53
2022-08-08T08:40:00.440Z,101014.72
2022-08-08T08:40:38.403Z,100999.56
2022-08-08T08:41:23.914Z,101012.38
2022-08-08T08:42:06.342Z,101011.88
2022-08-08T08:42:49.433Z,101005.16
2022-08-08T08:43:32.316Z,101002.41
2022-08-08T08:44:15.491Z,101003.09
2022-08-08T08:44:56.345Z,100999.81
2022-08-08T08:45:45.367Z,100980.13
2022-08-08T08:46:40.332Z,101006.66
2022-08-08T08:47:43.885Z,100992.06
2022-08-08T08:48:41.952Z,101000.78
2022-08-08T08:49:43.342Z,101005.13
2022-08-08T08:50:40.854Z,100998.59
2022-08-08T08:51:23.335Z,100997.38
2022-08-08T08:52:06.908Z,100994.06
2022-08-08T08:52:59.934Z,101001.28
2022-08-08T08:53:56.446Z,101001.28
2022-08-08T08:54:42.321Z,100998.34
2022-08-08T08:55:24.402Z,101004.63
2022-08-08T08:56:10.317Z,101005.28
2022-08-08T08:56:52.361Z,101005.78
2022-08-08T08:57:26.398Z,101007.00
2022-08-08T08:58:15.338Z,101000.75
2022-08-08T08:58:51.436Z,100990.50
2022-08-08T09:00:01.789Z,101000.75
2022-08-08T09:01:02.937Z,101005.59
2022-08-08T09:01:45.702Z,100983.09
2022-08-08T09:02:34.349Z,100985.09
2022-08-08T09:03:31.492Z,100996.38
2022-08-08T09:04:50.266Z,101000.75
2022-08-08T09:05:54.836Z,100994.88
2022-08-08T09:06:55.315Z,101001.69
2022-08-08T09:07:52.341Z,100980.66
2022-08-08T09:09:39.701Z,100994.25
2022-08-08T09:10:43.297Z,101009.63
2022-08-08T09:11:46.975Z,100999.56
2022-08-08T09:12:42.316Z,101002.41
2022-08-08T09:13:28.210Z,100994.53
2022-08-08T09:14:10.467Z,101000.53
2022-08-08T09:14:51.540Z,100991.88
2022-08-08T09:15:41.669Z,100998.97
2022-08-08T09:16:24.300Z,100991.69
2022-08-08T09:17:14.225Z,100999.63
2022-08-08T09:17:58.596Z,100985.44
2022-08-08T09:18:41.394Z,100984.19
2022-08-08T09:19:25.297Z,100984.75
2022-08-08T09:21:57.488Z,100983.81
2022-08-08T09:22:02.790Z,100994.47
2022-08-08T09:22:29.311Z,100991.34
2022-08-08T09:23:03.435Z,100992.47
2022-08-08T09:23:50.386Z,100996.97
2022-08-08T09:24:24.425Z,100993.31
2022-08-08T09:25:15.079Z,100987.75
2022-08-08T09:26:12.538Z,100993.69
2022-08-08T09:27:15.056Z,100983.56
2022-08-08T09:28:02.504Z,100994.25
2022-08-08T09:28:47.300Z,100989.31
2022-08-08T09:29:30.320Z,100979.84
2022-08-08T09:30:22.240Z,100992.97
2022-08-08T09:31:12.598Z,100991.72
2022-08-08T09:32:14.506Z,100990.47
2022-08-08T09:33:54.346Z,100982.41
2022-08-08T09:34:30.567Z,100998.84
2022-08-08T09:35:05.181Z,101005.00
2022-08-08T09:35:49.059Z,101003.75
2022-08-08T09:36:28.747Z,100981.63
2022-08-08T09:37:57.519Z,100976.53
2022-08-08T09:38:17.800Z,100998.16
2022-08-08T09:38:59.729Z,100991.59
2022-08-08T09:40:15.462Z,100996.16
2022-08-08T09:40:57.689Z,100990.56
2022-08-08T09:42:14.582Z,100996.16
2022-08-08T09:42:51.382Z,101000.41
2022-08-08T09:43:41.182Z,101009.81
2022-08-08T09:44:47.706Z,101005.00
2022-08-08T09:46:01.268Z,100994.47
2022-08-08T09:46:36.362Z,100990.44
2022-08-08T09:47:25.872Z,100997.88
2022-08-08T09:48:21.991Z,101001.25
2022-08-08T09:49:41.006Z,100995.13
2022-08-08T09:50:04.780Z,101001.19
2022-08-08T09:50:50.133Z,100993.13
2022-08-08T09:51:28.358Z,100995.69
2022-08-08T09:52:06.806Z,100992.56
2022-08-08T09:53:02.906Z,100993.28
2022-08-08T09:54:08.435Z,100997.28
2022-08-08T09:54:51.197Z,100994.81
2022-08-08T09:56:04.384Z,100998.41
2022-08-08T09:56:34.304Z,100992.72
2022-08-08T09:57:19.436Z,101000.78
2022-08-08T09:58:40.807Z,100999.44
2022-08-08T10:00:01.682Z,100981.97
2022-08-08T10:00:53.142Z,100995.91
2022-08-08T10:01:58.514Z,100997.88
2022-08-08T10:02:45.081Z,100984.78
2022-08-08T10:03:25.347Z,100988.41
2022-08-08T10:04:02.212Z,100987.44
2022-08-08T10:04:47.901Z,100988.56
2022-08-08T10:05:31.314Z,101005.56
2022-08-08T10:06:17.738Z,100985.22
2022-08-08T10:07:00.272Z,101000.13
2022-08-08T10:07:44.966Z,100985.94
2022-08-08T10:08:25.292Z,100992.91
2022-08-08T10:09:10.337Z,100988.19
2022-08-08T10:09:59.817Z,100989.44
2022-08-08T10:10:50.105Z,100999.69
2022-08-08T10:12:28.273Z,100998.69
2022-08-08T10:12:54.318Z,100983.34
2022-08-08T10:13:38.510Z,100996.72
2022-08-08T10:14:28.159Z,100998.91
2022-08-08T10:15:18.612Z,100984.94
2022-08-08T10:16:03.796Z,100992.91
2022-08-08T10:16:49.261Z,100997.16
2022-08-08T10:17:57.529Z,100988.66
2022-08-08T10:18:40.310Z,100995.94
2022-08-08T10:19:21.344Z,100990.81
2022-08-08T10:20:08.289Z,100992.34
2022-08-08T10:21:00.520Z,100995.94
2022-08-08T10:21:51.017Z,100985.72
2022-08-08T10:22:34.308Z,101001.03
2022-08-08T10:23:41.150Z,100997.28
2022-08-08T10:24:29.255Z,100999.75
2022-08-08T10:25:15.897Z,100993.84
2022-08-08T10:25:57.661Z,100989.38
2022-08-08T10:26:56.877Z,100990.63
2022-08-08T10:27:49.241Z,100982.63
2022-08-08T10:28:30.361Z,100981.38
2022-08-08T10:29:22.872Z,100982.81
2022-08-08T10:30:16.191Z,100988.00
2022-08-08T10:31:46.753Z,100985.72
2022-08-08T10:32:38.312Z,100988.78
2022-08-08T10:33:20.253Z,100989.72
2022-08-08T10:34:18.484Z,100980.44
2022-08-08T10:35:02.062Z,100996.59
2022-08-08T10:36:07.970Z,100985.38
2022-08-08T10:36:38.401Z,100987.78
2022-08-08T10:37:14.207Z,100981.22
2022-08-08T10:38:21.275Z,100977.16
2022-08-08T10:38:57.323Z,100982.44
2022-08-08T10:39:54.427Z,100987.94
2022-08-08T10:40:38.270Z,100978.22
2022-08-08T10:41:20.223Z,100975.06
2022-08-08T10:42:14.994Z,100985.41
2022-08-08T10:43:10.359Z,100977.16
2022-08-08T10:43:51.617Z,100976.97
2022-08-08T10:44:52.246Z,100988.06
2022-08-08T10:45:29.738Z,100985.31
2022-08-08T10:46:39.270Z,100983.00
2022-08-08T10:47:15.762Z,100973.81
2022-08-08T10:48:13.269Z,100985.00
2022-08-08T10:48:58.345Z,100985.84
2022-08-08T10:50:01.659Z,100982.63
2022-08-08T10:50:39.301Z,100980.34
2022-08-08T10:51:31.439Z,100984.78
2022-08-08T10:52:31.134Z,100974.91
2022-08-08T10:53:16.308Z,100977.03
2022-08-08T10:54:01.905Z,100979.97
2022-08-08T10:54:42.292Z,100979.53
2022-08-08T10:55:40.968Z,100982.88
2022-08-08T10:56:27.062Z,100976.78
2022-08-08T10:57:14.280Z,100970.44
2022-08-08T10:57:56.289Z,100978.00
2022-08-08T10:58:35.408Z,100978.22
2022-08-08T10:59:14.015Z,100976.53
2022-08-08T11:00:06.217Z,100983.56
2022-08-08T11:00:52.695Z,100977.75
2022-08-08T11:01:39.284Z,100971.59
2022-08-08T11:02:20.351Z,100960.22
2022-08-08T11:03:08.312Z,100979.88
2022-08-08T11:04:01.250Z,100968.84
2022-08-08T11:05:00.312Z,100977.41
2022-08-08T11:06:00.933Z,100977.41
2022-08-08T11:06:50.230Z,100981.22
2022-08-08T11:08:31.904Z,100976.56
2022-08-08T11:08:41.967Z,100974.66
2022-08-08T11:09:21.809Z,100966.38
2022-08-08T11:10:09.249Z,100970.84